createdAt,value
2018-06-13T00:00:35.022Z,99.90
2018-06-13T00:03:04.266Z,99.90
2018-06-13T00:05:33.799Z,99.90
2018-06-13T00:08:03.430Z,99.90
2018-06-13T00:10:32.882Z,99.90
2018-06-13T00:13:02.189Z,99.90
2018-06-13T00:15:31.601Z,99.90
2018-06-13T00:18:00.921Z,99.90
2018-06-13T00:20:30.234Z,99.90
2018-06-13T00:22:59.590Z,99.90
2018-06-13T00:25:28.916Z,99.90
2018-06-13T00:27:58.206Z,99.90
2018-06-13T00:30:27.599Z,99.90
2018-06-13T00:32:57.103Z,99.90
2018-06-13T00:35:26.431Z,99.90
2018-06-13T00:37:55.902Z,99.90
2018-06-13T00:40:25.213Z,99.90
2018-06-13T00:42:54.643Z,99.90
2018-06-13T00:45:24.044Z,99.90
2018-06-13T00:47:53.536Z,99.90
2018-06-13T00:50:22.930Z,99.90
2018-06-13T00:52:52.178Z,99.90
2018-06-13T00:55:21.567Z,99.90
2018-06-13T00:57:50.926Z,99.90
2018-06-13T01:00:20.562Z,99.90
2018-06-13T01:02:49.922Z,99.90
2018-06-13T01:05:19.274Z,99.90
2018-06-13T01:07:48.550Z,99.90
2018-06-13T01:10:17.871Z,99.90
2018-06-13T01:12:47.161Z,99.90
2018-06-13T01:15:16.564Z,99.90
2018-06-13T01:17:45.843Z,99.90
2018-06-13T01:20:15.197Z,99.90
2018-06-13T01:22:44.548Z,99.90
2018-06-13T01:25:13.966Z,99.90
2018-06-13T01:27:43.354Z,99.90
2018-06-13T01:30:12.629Z,99.90
2018-06-13T01:32:42.274Z,99.90
2018-06-13T01:35:11.469Z,99.90
2018-06-13T01:37:40.915Z,99.90
2018-06-13T01:40:10.218Z,99.90
2018-06-13T01:42:39.543Z,99.90
2018-06-13T01:45:08.756Z,99.90
2018-06-13T01:47:38.033Z,99.90
2018-06-13T01:50:07.291Z,99.90
2018-06-13T01:52:36.574Z,99.90
2018-06-13T01:55:05.879Z,99.90
2018-06-13T01:57:35.169Z,99.90
2018-06-13T02:00:05.702Z,99.90
2018-06-13T02:02:35.620Z,99.90
2018-06-13T02:05:05.124Z,99.90
2018-06-13T02:07:34.424Z,99.90
2018-06-13T02:10:03.922Z,99.90
2018-06-13T02:12:33.248Z,99.90
2018-06-13T02:15:02.660Z,99.90
2018-06-13T02:17:31.865Z,99.90
2018-06-13T02:20:01.361Z,99.90
2018-06-13T02:22:30.672Z,99.90
2018-06-13T02:24:59.894Z,99.90
2018-06-13T02:27:29.143Z,99.90
2018-06-13T02:29:58.539Z,99.90
2018-06-13T02:32:27.828Z,99.90
2018-06-13T02:34:57.095Z,99.90
2018-06-13T02:37:26.539Z,99.90
2018-06-13T02:39:56.148Z,99.90
2018-06-13T02:42:25.482Z,99.90
2018-06-13T02:44:54.720Z,99.90
2018-06-13T02:47:24.058Z,99.90
2018-06-13T02:49:53.454Z,99.90
2018-06-13T02:52:22.802Z,99.90
2018-06-13T02:54:52.110Z,99.90
2018-06-13T02:57:22.236Z,99.90
2018-06-13T02:59:51.523Z,99.90
2018-06-13T03:02:20.779Z,99.90
2018-06-13T03:04:50.124Z,99.90
2018-06-13T03:07:19.467Z,99.90
2018-06-13T03:09:48.712Z,99.90
2018-06-13T03:12:18.030Z,99.90
2018-06-13T03:14:47.452Z,99.90
2018-06-13T03:17:16.689Z,99.90
2018-06-13T03:19:46.108Z,99.90
2018-06-13T03:22:15.359Z,99.90
2018-06-13T03:24:44.915Z,99.90
2018-06-13T03:27:14.254Z,99.90
2018-06-13T03:29:43.824Z,99.90
2018-06-13T03:32:13.147Z,99.90
2018-06-13T03:34:42.624Z,99.90
2018-06-13T03:37:11.932Z,99.90
2018-06-13T03:39:41.170Z,99.90
2018-06-13T03:42:10.549Z,99.90
2018-06-13T03:44:39.871Z,99.90
2018-06-13T03:47:09.275Z,99.90
2018-06-13T03:49:38.601Z,99.90
2018-06-13T03:52:08.383Z,99.90
2018-06-13T03:54:37.730Z,99.90
2018-06-13T03:57:07.000Z,99.90
2018-06-13T03:59:36.329Z,99.90
2018-06-13T04:02:05.985Z,99.90
2018-06-13T04:04:35.124Z,99.90
2018-06-13T04:07:04.554Z,99.90
2018-06-13T04:09:33.855Z,99.90
2018-06-13T04:12:03.228Z,99.90
2018-06-13T04:14:32.536Z,99.90
2018-06-13T04:17:01.849Z,99.90
2018-06-13T04:19:31.255Z,99.90
2018-06-13T04:22:00.624Z,99.90
2018-06-13T04:24:29.920Z,99.90
2018-06-13T04:26:59.331Z,99.90
2018-06-13T04:29:28.608Z,99.90
2018-06-13T04:31:58.022Z,99.90
2018-06-13T04:34:27.519Z,99.90
2018-06-13T04:36:56.754Z,99.90
2018-06-13T04:39:26.015Z,99.90
2018-06-13T04:41:55.504Z,99.90
2018-06-13T04:44:25.124Z,99.90
2018-06-13T04:46:55.449Z,99.90
2018-06-13T04:49:24.837Z,99.90
2018-06-13T04:51:54.836Z,99.90
2018-06-13T04:54:24.195Z,99.90
2018-06-13T04:56:53.556Z,99.90
2018-06-13T04:59:22.891Z,99.90
2018-06-13T05:01:52.182Z,99.90
2018-06-13T05:04:21.568Z,99.90
2018-06-13T05:06:50.973Z,99.90
2018-06-13T05:09:20.389Z,99.90
2018-06-13T05:11:49.530Z,99.90
2018-06-13T05:14:18.905Z,99.90
2018-06-13T05:16:48.278Z,99.90
2018-06-13T05:19:17.558Z,99.90
2018-06-13T05:21:47.083Z,99.90
2018-06-13T05:24:16.435Z,99.90
2018-06-13T05:26:45.826Z,99.90
2018-06-13T05:29:15.210Z,99.90
2018-06-13T05:31:48.347Z,99.90
2018-06-13T05:34:17.693Z,99.90
2018-06-13T05:36:47.044Z,99.90
2018-06-13T05:39:16.502Z,99.90
2018-06-13T05:41:45.889Z,99.90
2018-06-13T05:44:15.197Z,99.90
2018-06-13T05:46:44.533Z,99.90
2018-06-13T05:49:13.902Z,99.90
2018-06-13T05:51:43.292Z,99.90
2018-06-13T05:54:12.904Z,99.90
2018-06-13T05:56:42.299Z,99.70
2018-06-13T05:59:11.609Z,98.30
2018-06-13T06:01:41.023Z,98.30
2018-06-13T06:04:10.450Z,99.30
2018-06-13T06:06:39.818Z,98.50
2018-06-13T06:09:09.790Z,98.80
2018-06-13T06:11:39.022Z,98.80
2018-06-13T06:14:08.339Z,99.30
2018-06-13T06:16:37.680Z,99.00
2018-06-13T06:19:06.936Z,97.90
2018-06-13T06:21:36.311Z,95.70
2018-06-13T06:24:06.389Z,96.30
2018-06-13T06:26:35.711Z,97.10
2018-06-13T06:29:05.118Z,96.60
2018-06-13T06:31:34.455Z,96.20
2018-06-13T06:34:03.951Z,95.70
2018-06-13T06:36:33.520Z,95.60
2018-06-13T06:39:02.788Z,95.00
2018-06-13T06:41:32.247Z,94.90
2018-06-13T06:44:01.532Z,93.90
2018-06-13T06:46:30.978Z,92.20
2018-06-13T06:49:00.290Z,93.30
2018-06-13T06:51:29.631Z,92.70
2018-06-13T06:53:58.858Z,92.70
2018-06-13T06:56:28.384Z,92.60
2018-06-13T06:58:57.747Z,90.40
2018-06-13T07:01:27.240Z,89.40
2018-06-13T07:03:57.675Z,88.80
2018-06-13T07:06:27.008Z,90.00
2018-06-13T07:08:56.342Z,86.70
2018-06-13T07:11:25.844Z,81.80
2018-06-13T07:13:55.437Z,78.80
2018-06-13T07:16:24.838Z,76.40
2018-06-13T07:18:54.174Z,69.30
2018-06-13T07:21:23.675Z,67.70
2018-06-13T07:23:52.871Z,64.10
2018-06-13T07:26:22.245Z,64.50
2018-06-13T07:28:51.615Z,61.20
2018-06-13T07:31:20.966Z,60.00
2018-06-13T07:33:50.279Z,60.10
2018-06-13T07:36:19.634Z,59.10
2018-06-13T07:38:48.972Z,58.90
2018-06-13T07:41:19.269Z,59.30
2018-06-13T07:43:48.520Z,60.10
2018-06-13T07:46:17.907Z,59.30
2018-06-13T07:48:47.279Z,58.30
2018-06-13T07:51:16.695Z,56.90
2018-06-13T07:53:46.041Z,52.00
2018-06-13T07:56:15.374Z,48.10
2018-06-13T07:58:44.690Z,49.00
2018-06-13T08:01:14.201Z,49.40
2018-06-13T08:03:43.422Z,50.10
2018-06-13T08:06:12.701Z,50.20
2018-06-13T08:08:42.004Z,49.70
2018-06-13T08:11:11.380Z,48.70
2018-06-13T08:13:40.811Z,45.00
2018-06-13T08:16:10.355Z,45.90
2018-06-13T08:18:39.677Z,46.70
2018-06-13T08:21:08.935Z,49.40
2018-06-13T08:23:38.426Z,50.50
2018-06-13T08:26:07.913Z,54.60
2018-06-13T08:28:37.395Z,56.20
2018-06-13T08:31:06.869Z,56.50
2018-06-13T08:33:36.576Z,56.20
2018-06-13T08:36:06.032Z,56.30
2018-06-13T08:38:35.724Z,57.50
2018-06-13T08:41:05.102Z,59.30
2018-06-13T08:43:34.443Z,57.90
2018-06-13T08:46:04.172Z,59.00
2018-06-13T08:48:33.515Z,59.80
2018-06-13T08:51:02.971Z,61.70
2018-06-13T08:53:33.162Z,60.90
2018-06-13T08:56:02.556Z,62.80
2018-06-13T08:58:31.978Z,62.00
2018-06-13T09:01:01.715Z,64.10
2018-06-13T09:03:31.010Z,63.20
2018-06-13T09:06:00.642Z,64.90
2018-06-13T09:08:29.930Z,64.50
2018-06-13T09:10:59.313Z,62.70
2018-06-13T09:13:28.686Z,64.00
2018-06-13T09:15:57.908Z,64.90
2018-06-13T09:18:27.188Z,66.20
2018-06-13T09:20:56.553Z,69.80
2018-06-13T09:23:25.834Z,69.90
2018-06-13T09:25:55.188Z,70.40
2018-06-13T09:28:24.551Z,70.50
2018-06-13T09:30:53.746Z,72.70
2018-06-13T09:33:23.218Z,74.20
2018-06-13T09:35:52.521Z,77.90
2018-06-13T09:38:21.889Z,79.50
2018-06-13T09:40:51.029Z,79.80
2018-06-13T09:43:20.511Z,78.30
2018-06-13T09:45:49.962Z,80.10
2018-06-13T09:48:19.986Z,80.80
2018-06-13T09:50:49.486Z,81.80
2018-06-13T09:53:18.943Z,84.70
2018-06-13T09:55:48.322Z,83.30
2018-06-13T09:58:18.196Z,79.20
2018-06-13T10:03:22.178Z,77.30
2018-06-13T10:05:51.500Z,76.20
2018-06-13T10:08:20.811Z,74.80
2018-06-13T10:10:50.144Z,72.60
2018-06-13T10:13:19.591Z,73.60
2018-06-13T10:15:49.150Z,70.80
2018-06-13T10:18:18.609Z,69.00
2018-06-13T10:20:47.885Z,67.60
2018-06-13T10:23:18.102Z,65.90
2018-06-13T10:25:47.536Z,63.70
2018-06-13T10:28:16.937Z,61.80
2018-06-13T10:30:46.350Z,57.50
2018-06-13T10:33:15.754Z,56.00
2018-06-13T10:35:45.270Z,56.50
2018-06-13T10:38:14.532Z,55.70
2018-06-13T10:40:43.950Z,52.40
2018-06-13T10:43:13.274Z,50.10
2018-06-13T10:45:42.958Z,49.80
2018-06-13T10:48:12.262Z,49.50
2018-06-13T10:50:41.812Z,48.80
2018-06-13T10:53:11.074Z,47.60
2018-06-13T10:55:40.411Z,48.30
2018-06-13T10:58:09.788Z,48.80
2018-06-13T11:00:39.204Z,49.40
2018-06-13T11:03:08.551Z,47.20
2018-06-13T11:05:37.799Z,47.70
2018-06-13T11:08:07.102Z,47.90
2018-06-13T11:10:36.510Z,47.90
2018-06-13T11:13:05.979Z,46.40
2018-06-13T11:15:35.227Z,47.50
2018-06-13T11:18:04.499Z,48.10
2018-06-13T11:20:34.125Z,48.30
2018-06-13T11:23:03.622Z,50.40
2018-06-13T11:25:33.036Z,52.60
2018-06-13T11:28:02.459Z,50.20
2018-06-13T11:30:31.813Z,52.10
2018-06-13T11:33:01.230Z,52.90
2018-06-13T11:35:30.551Z,56.10
2018-06-13T11:37:59.975Z,56.50
2018-06-13T11:40:29.319Z,58.40
2018-06-13T11:42:59.117Z,59.90
2018-06-13T11:45:28.618Z,59.50
2018-06-13T11:47:58.076Z,60.40
2018-06-13T11:50:27.472Z,59.70
2018-06-13T11:52:57.005Z,60.90
2018-06-13T11:55:27.014Z,59.10
2018-06-13T11:57:56.509Z,59.50
2018-06-13T12:00:26.150Z,59.60
2018-06-13T12:02:55.565Z,59.20
2018-06-13T12:05:28.248Z,60.40
2018-06-13T12:07:57.897Z,60.30
2018-06-13T12:10:27.413Z,60.40
2018-06-13T12:12:56.866Z,61.90
2018-06-13T12:15:26.383Z,61.20
2018-06-13T12:17:55.902Z,62.80
2018-06-13T12:20:25.514Z,63.60
2018-06-13T12:22:54.910Z,61.30
2018-06-13T12:25:24.310Z,61.50
2018-06-13T12:27:54.058Z,62.20
2018-06-13T12:30:23.604Z,61.30
2018-06-13T12:32:53.119Z,60.90
2018-06-13T12:35:22.566Z,61.50
2018-06-13T12:37:51.958Z,59.80
2018-06-13T12:40:21.620Z,59.80
2018-06-13T12:42:51.105Z,59.90
2018-06-13T12:45:20.540Z,59.00
2018-06-13T12:47:50.026Z,59.30
2018-06-13T12:50:19.524Z,59.60
2018-06-13T12:52:49.037Z,59.80
2018-06-13T12:55:18.593Z,59.10
2018-06-13T12:57:47.935Z,59.00
2018-06-13T13:00:17.277Z,59.40
2018-06-13T13:02:46.586Z,59.20
2018-06-13T13:05:15.769Z,60.10
2018-06-13T13:07:45.202Z,60.50
2018-06-13T13:10:15.343Z,59.10
2018-06-13T13:12:44.673Z,59.20
2018-06-13T13:15:14.130Z,59.60
2018-06-13T13:17:43.545Z,57.10
2018-06-13T13:20:12.933Z,57.30
2018-06-13T13:22:42.272Z,57.40
2018-06-13T13:25:11.569Z,57.40
2018-06-13T13:27:40.945Z,57.90
2018-06-13T13:30:10.359Z,58.50
2018-06-13T13:32:39.543Z,58.50
2018-06-13T13:35:08.991Z,58.50
2018-06-13T13:37:38.486Z,60.50
2018-06-13T13:40:08.098Z,61.40
2018-06-13T13:42:37.668Z,61.20
2018-06-13T13:45:07.264Z,61.70
2018-06-13T13:47:36.559Z,63.30
2018-06-13T13:50:05.974Z,65.00
2018-06-13T13:52:35.306Z,64.40
2018-06-13T13:55:04.716Z,62.60
2018-06-13T13:57:34.055Z,61.90
2018-06-13T14:00:03.424Z,62.10
2018-06-13T14:02:32.899Z,61.90
2018-06-13T14:05:02.155Z,61.20
2018-06-13T14:07:31.666Z,62.70
2018-06-13T14:10:01.134Z,61.80
2018-06-13T14:12:30.651Z,63.10
2018-06-13T14:15:00.095Z,62.30
2018-06-13T14:17:29.553Z,60.60
2018-06-13T14:19:58.990Z,62.20
2018-06-13T14:22:28.412Z,61.10
2018-06-13T14:24:57.903Z,60.00
2018-06-13T14:27:27.304Z,60.40
2018-06-13T14:29:56.775Z,60.40
2018-06-13T14:32:26.286Z,60.30
2018-06-13T14:34:55.599Z,60.40
2018-06-13T14:37:24.877Z,60.40
2018-06-13T14:39:54.232Z,59.90
2018-06-13T14:42:23.642Z,59.40
2018-06-13T14:44:53.044Z,60.60
2018-06-13T14:47:23.131Z,60.40
2018-06-13T14:49:52.609Z,61.90
2018-06-13T14:52:22.043Z,62.90
2018-06-13T14:54:51.548Z,63.30
2018-06-13T14:57:20.924Z,61.90
2018-06-13T14:59:50.330Z,63.70
2018-06-13T15:02:19.606Z,62.30
2018-06-13T15:04:48.963Z,64.10
2018-06-13T15:07:18.135Z,63.90
2018-06-13T15:09:47.443Z,62.90
2018-06-13T15:12:16.692Z,65.80
2018-06-13T15:14:46.193Z,64.10
2018-06-13T15:17:15.543Z,62.70
2018-06-13T15:19:45.862Z,63.20
2018-06-13T15:22:15.231Z,62.30
2018-06-13T15:24:44.660Z,63.20
2018-06-13T15:27:14.098Z,62.90
2018-06-13T15:29:43.494Z,63.40
2018-06-13T15:32:13.046Z,63.80
2018-06-13T15:34:43.060Z,62.00
2018-06-13T15:37:12.393Z,64.10
2018-06-13T15:39:41.734Z,64.30
2018-06-13T15:42:11.046Z,64.90
2018-06-13T15:44:40.502Z,62.10
2018-06-13T15:47:09.801Z,62.80
2018-06-13T15:49:39.162Z,64.10
2018-06-13T15:52:09.092Z,64.80
2018-06-13T15:54:38.521Z,62.70
2018-06-13T15:57:07.925Z,62.90
2018-06-13T15:59:37.254Z,64.30
2018-06-13T16:02:06.542Z,62.30
2018-06-13T16:04:36.060Z,63.20
2018-06-13T16:07:06.252Z,64.20
2018-06-13T16:09:35.754Z,63.60
2018-06-13T16:12:05.293Z,65.40
2018-06-13T16:14:34.810Z,64.30
2018-06-13T16:17:04.156Z,64.40
2018-06-13T16:19:34.008Z,63.10
2018-06-13T16:22:03.353Z,63.00
2018-06-13T16:24:32.834Z,62.20
2018-06-13T16:27:02.397Z,62.10
2018-06-13T16:29:32.085Z,61.60
2018-06-13T16:32:01.426Z,62.40
2018-06-13T16:34:30.716Z,61.60
2018-06-13T16:37:00.235Z,64.10
2018-06-13T16:39:29.624Z,61.80
2018-06-13T16:41:58.962Z,62.00
2018-06-13T16:44:28.331Z,61.10
2018-06-13T16:46:57.735Z,63.10
2018-06-13T16:49:27.051Z,61.20
2018-06-13T16:51:58.367Z,61.60
2018-06-13T16:54:38.377Z,61.50
2018-06-13T16:57:07.704Z,60.40
2018-06-13T16:59:37.067Z,61.80
2018-06-13T17:02:06.512Z,60.00
2018-06-13T17:04:36.018Z,59.90
2018-06-13T17:07:05.471Z,59.20
2018-06-13T17:09:34.652Z,59.40
2018-06-13T17:12:03.971Z,60.90
2018-06-13T17:14:33.295Z,61.20
2018-06-13T17:17:02.621Z,60.90
2018-06-13T17:19:31.946Z,60.50
2018-06-13T17:22:01.279Z,59.10
2018-06-13T17:24:31.681Z,60.40
2018-06-13T17:27:01.165Z,60.70
2018-06-13T17:29:30.421Z,60.50
2018-06-13T17:32:00.113Z,62.10
2018-06-13T17:34:29.283Z,62.20
2018-06-13T17:36:58.567Z,61.40
2018-06-13T17:39:27.876Z,62.50
2018-06-13T17:41:57.081Z,61.00
2018-06-13T17:44:26.487Z,62.50
2018-06-13T17:46:55.831Z,62.70
2018-06-13T17:49:25.413Z,62.30
2018-06-13T17:51:54.626Z,63.60
2018-06-13T17:54:24.150Z,63.20
2018-06-13T17:56:53.525Z,65.90
2018-06-13T17:59:22.805Z,63.40
2018-06-13T18:01:52.204Z,64.20
2018-06-13T18:04:21.597Z,64.90
2018-06-13T18:06:51.536Z,65.10
2018-06-13T18:09:20.938Z,67.00
2018-06-13T18:11:50.400Z,65.30
2018-06-13T18:14:19.925Z,66.20
2018-06-13T18:16:49.233Z,67.20
2018-06-13T18:19:18.813Z,67.10
2018-06-13T18:21:48.146Z,66.30
2018-06-13T18:24:17.447Z,66.10
2018-06-13T18:26:46.726Z,68.00
2018-06-13T18:29:15.979Z,67.70
2018-06-13T18:31:48.706Z,67.20
2018-06-13T18:34:18.197Z,67.20
2018-06-13T18:36:47.543Z,67.10
2018-06-13T18:39:16.889Z,66.80
2018-06-13T18:41:46.011Z,69.10
2018-06-13T18:44:15.330Z,71.40
2018-06-13T18:46:45.056Z,74.00
2018-06-13T18:49:15.387Z,75.10
2018-06-13T18:51:44.867Z,77.40
2018-06-13T18:54:14.627Z,78.40
2018-06-13T18:56:44.378Z,79.30
2018-06-13T18:59:13.987Z,84.40
2018-06-13T19:01:44.111Z,82.30
2018-06-13T19:04:13.534Z,85.10
2018-06-13T19:06:43.192Z,84.30
2018-06-13T19:09:12.883Z,85.20
2018-06-13T19:11:46.221Z,87.30
2018-06-13T19:14:21.300Z,89.40
2018-06-13T19:16:50.675Z,87.60
2018-06-13T19:19:24.295Z,90.20
2018-06-13T19:21:53.990Z,88.60
2018-06-13T19:24:23.719Z,88.80
2018-06-13T19:26:53.228Z,89.70
2018-06-13T19:29:23.111Z,90.50
2018-06-13T19:31:52.849Z,90.10
2018-06-13T19:34:23.768Z,90.80
2018-06-13T19:36:53.483Z,90.30
2018-06-13T19:39:43.475Z,90.90
2018-06-13T19:42:12.971Z,91.10
2018-06-13T19:44:54.176Z,92.10
2018-06-13T19:47:28.820Z,92.60
2018-06-13T19:50:04.795Z,92.10
2018-06-13T19:52:39.098Z,92.10
2018-06-13T19:55:13.503Z,92.00
2018-06-13T19:57:43.234Z,92.40
2018-06-13T20:00:12.579Z,92.30
2018-06-13T20:02:47.100Z,92.30
2018-06-13T20:05:21.782Z,92.60
2018-06-13T20:07:51.132Z,93.20
2018-06-13T20:10:20.868Z,93.10
2018-06-13T20:12:55.358Z,93.10
2018-06-13T20:15:29.819Z,93.60
2018-06-13T20:18:04.680Z,93.10
2018-06-13T20:20:34.269Z,93.80
2018-06-13T20:23:03.842Z,93.70
2018-06-13T20:25:39.323Z,93.60
2018-06-13T20:28:17.680Z,94.10
2018-06-13T20:30:52.246Z,94.20
2018-06-13T20:33:22.513Z,93.20
2018-06-13T20:35:51.963Z,93.10
2018-06-13T20:38:21.407Z,94.30
2018-06-13T20:40:51.214Z,94.20
2018-06-13T20:43:20.809Z,93.50
2018-06-13T20:45:50.393Z,94.10
2018-06-13T20:48:20.083Z,94.20
2018-06-13T20:50:51.356Z,93.60
2018-06-13T20:53:21.102Z,93.30
2018-06-13T20:55:50.610Z,93.60
2018-06-13T20:58:20.885Z,93.60
2018-06-13T21:00:50.576Z,94.10
2018-06-13T21:03:20.980Z,93.00
2018-06-13T21:05:50.645Z,92.90
2018-06-13T21:08:20.575Z,93.00
2018-06-13T21:10:50.093Z,92.90
2018-06-13T21:13:20.240Z,93.00
2018-06-13T21:15:55.840Z,93.20
2018-06-13T21:18:25.464Z,93.20
2018-06-13T21:20:55.079Z,92.20
2018-06-13T21:23:24.625Z,92.20
2018-06-13T21:25:54.492Z,92.90
2018-06-13T21:28:23.822Z,92.70
2018-06-13T21:30:53.174Z,92.80
2018-06-13T21:33:22.617Z,93.30
2018-06-13T21:35:52.088Z,93.10
2018-06-13T21:38:21.515Z,92.50
2018-06-13T21:40:51.200Z,92.90
2018-06-13T21:43:20.580Z,93.40
2018-06-13T21:45:51.158Z,92.40
2018-06-13T21:48:20.430Z,92.30
2018-06-13T21:50:49.635Z,92.10
2018-06-13T21:53:19.246Z,92.80
2018-06-13T21:55:48.877Z,92.30
2018-06-13T21:58:18.276Z,92.20
2018-06-13T22:00:47.831Z,92.10
2018-06-13T22:03:17.260Z,91.80
2018-06-13T22:05:46.562Z,90.90
2018-06-13T22:08:19.630Z,91.10
2018-06-13T22:10:49.071Z,92.10
2018-06-13T22:13:18.463Z,91.10
2018-06-13T22:15:47.811Z,91.10
2018-06-13T22:18:17.187Z,91.20
2018-06-13T22:20:46.537Z,91.60
2018-06-13T22:23:15.964Z,91.20
2018-06-13T22:25:45.262Z,91.60
2018-06-13T22:28:14.662Z,91.70
2018-06-13T22:30:44.058Z,91.80
2018-06-13T22:33:14.382Z,91.40
2018-06-13T22:35:43.796Z,91.60
2018-06-13T22:38:13.305Z,91.70
2018-06-13T22:40:42.807Z,92.60
2018-06-13T22:43:12.172Z,91.70
2018-06-13T22:45:41.890Z,91.40
2018-06-13T22:48:11.255Z,91.50
2018-06-13T22:50:40.986Z,92.30
2018-06-13T22:53:10.374Z,92.20
2018-06-13T22:55:39.828Z,92.70
2018-06-13T22:58:09.251Z,92.10
2018-06-13T23:01:10.292Z,92.10
2018-06-13T23:03:39.996Z,92.70
2018-06-13T23:06:10.535Z,92.80
2018-06-13T23:08:40.203Z,92.90
2018-06-13T23:11:09.454Z,92.50
2018-06-13T23:13:38.766Z,92.30
2018-06-13T23:16:08.487Z,92.50
2018-06-13T23:18:37.850Z,94.00
2018-06-13T23:21:07.381Z,92.50
2018-06-13T23:23:36.824Z,92.30
2018-06-13T23:26:06.354Z,93.00
2018-06-13T23:28:35.804Z,92.50
2018-06-13T23:31:05.334Z,92.50
2018-06-13T23:33:34.795Z,93.00
2018-06-13T23:36:04.227Z,93.20
2018-06-13T23:38:33.616Z,92.80
2018-06-13T23:41:03.057Z,93.40
2018-06-13T23:43:33.003Z,93.50
2018-06-13T23:46:02.534Z,94.30
2018-06-13T23:48:31.946Z,92.90
2018-06-13T23:51:01.266Z,92.90
2018-06-13T23:53:30.835Z,93.40
2018-06-13T23:56:00.378Z,93.20
2018-06-13T23:58:29.792Z,93.70
